createdAt,value
2018-07-11T00:01:19.536Z,14.60
2018-07-11T00:06:18.003Z,14.80
2018-07-11T00:08:46.165Z,14.60
2018-07-11T00:11:14.300Z,14.70
2018-07-11T00:13:43.769Z,14.80
2018-07-11T00:16:12.330Z,14.90
2018-07-11T00:18:40.494Z,15.00
2018-07-11T00:21:08.641Z,15.00
2018-07-11T00:23:36.843Z,15.10
2018-07-11T00:26:06.093Z,14.80
2018-07-11T00:31:02.183Z,14.70
2018-07-11T00:33:30.725Z,14.90
2018-07-11T00:38:26.880Z,15.10
2018-07-11T00:40:55.036Z,15.10
2018-07-11T00:43:23.301Z,15.10
2018-07-11T00:45:51.652Z,15.00
2018-07-11T00:48:19.827Z,15.00
2018-07-11T00:50:48.243Z,14.90
2018-07-11T00:53:16.472Z,14.90
2018-07-11T00:55:45.661Z,14.90
2018-07-11T00:58:37.237Z,14.80
2018-07-11T01:06:04.486Z,14.90
2018-07-11T01:08:35.268Z,14.90
2018-07-11T01:11:09.175Z,14.90
2018-07-11T01:21:01.637Z,14.80
2018-07-11T01:23:29.985Z,14.60
2018-07-11T01:25:58.272Z,14.60
2018-07-11T01:28:26.416Z,14.70
2018-07-11T01:30:54.565Z,14.70
2018-07-11T01:35:50.748Z,14.70
2018-07-11T01:38:18.900Z,14.40
2018-07-11T01:40:47.083Z,14.10
2018-07-11T01:43:15.223Z,14.20
2018-07-11T01:48:11.302Z,14.30
2018-07-11T01:50:39.513Z,14.30
2018-07-11T01:53:07.686Z,14.30
2018-07-11T01:55:35.853Z,14.50
2018-07-11T01:58:10.855Z,14.40
2018-07-11T02:00:39.028Z,14.60
2018-07-11T02:03:07.276Z,14.70
2018-07-11T02:08:03.349Z,14.80
2018-07-11T02:10:31.513Z,14.80
2018-07-11T02:13:00.021Z,14.80
2018-07-11T02:15:28.253Z,14.80
2018-07-11T02:17:56.429Z,14.80
2018-07-11T02:20:24.596Z,14.90
2018-07-11T02:25:21.502Z,14.80
2018-07-11T02:27:50.140Z,14.80
2018-07-11T02:32:46.256Z,14.60
2018-07-11T02:35:14.449Z,14.60
2018-07-11T02:40:10.620Z,14.60
2018-07-11T02:42:38.768Z,14.40
2018-07-11T02:47:40.209Z,14.40
2018-07-11T02:50:08.369Z,14.00
2018-07-11T02:52:36.521Z,13.80
2018-07-11T02:55:05.284Z,13.60
2018-07-11T02:57:33.529Z,13.80
2018-07-11T03:00:01.734Z,13.80
2018-07-11T03:02:29.902Z,13.70
2018-07-11T03:07:25.986Z,13.40
2018-07-11T03:09:54.139Z,13.40
2018-07-11T03:12:22.296Z,13.30
2018-07-11T03:17:20.141Z,13.40
2018-07-11T03:19:48.337Z,13.30
2018-07-11T03:22:17.093Z,13.40
2018-07-11T03:24:45.245Z,13.30
2018-07-11T03:27:13.434Z,13.30
2018-07-11T03:29:41.721Z,13.30
2018-07-11T03:32:10.128Z,13.30
2018-07-11T03:34:38.289Z,13.30
2018-07-11T03:37:06.556Z,13.10
2018-07-11T03:39:34.789Z,13.10
2018-07-11T03:42:09.449Z,13.10
2018-07-11T03:44:38.063Z,13.10
2018-07-11T03:47:06.252Z,13.10
2018-07-11T03:49:34.413Z,13.10
2018-07-11T03:52:02.601Z,13.30
2018-07-11T03:56:58.716Z,13.70
2018-07-11T03:59:26.890Z,13.80
2018-07-11T04:01:55.082Z,14.00
2018-07-11T04:04:23.243Z,14.00
2018-07-11T04:06:51.432Z,13.90
2018-07-11T04:09:19.607Z,13.90
2018-07-11T04:14:15.735Z,13.20
2018-07-11T04:16:43.914Z,13.60
2018-07-11T04:19:12.271Z,13.60
2018-07-11T04:21:40.320Z,13.70
2018-07-11T04:24:08.476Z,13.70
2018-07-11T04:26:36.648Z,13.70
2018-07-11T04:29:04.802Z,13.70
2018-07-11T04:34:00.862Z,13.80
2018-07-11T04:36:29.054Z,13.80
2018-07-11T04:38:57.292Z,13.90
2018-07-11T04:41:25.456Z,13.80
2018-07-11T04:43:53.677Z,13.60
2018-07-11T04:46:21.833Z,13.90
2018-07-11T04:48:49.981Z,14.00
2018-07-11T04:53:46.052Z,13.50
2018-07-11T04:56:14.209Z,13.40
2018-07-11T05:01:10.311Z,13.20
2018-07-11T05:03:38.452Z,13.40
2018-07-11T05:06:06.608Z,13.20
2018-07-11T05:08:34.778Z,13.30
2018-07-11T05:11:02.962Z,13.40
2018-07-11T05:13:31.089Z,13.40
2018-07-11T05:15:59.250Z,13.30
2018-07-11T05:18:27.445Z,13.40
2018-07-11T05:20:55.587Z,13.30
2018-07-11T05:23:23.752Z,13.50
2018-07-11T05:25:51.906Z,13.70
2018-07-11T05:28:20.069Z,13.80
2018-07-11T05:30:48.226Z,13.90
2018-07-11T05:35:44.324Z,14.00
2018-07-11T05:38:12.548Z,13.70
2018-07-11T05:43:08.653Z,13.50
2018-07-11T05:45:36.872Z,13.60
2018-07-11T05:50:32.964Z,13.50
2018-07-11T05:53:01.147Z,13.60
2018-07-11T05:55:29.303Z,13.80
2018-07-11T05:57:57.500Z,13.60
2018-07-11T06:00:25.670Z,13.90
2018-07-11T06:02:53.838Z,13.80
2018-07-11T06:05:22.060Z,13.60
2018-07-11T06:07:50.236Z,13.60
2018-07-11T06:10:18.393Z,13.70
2018-07-11T06:15:14.597Z,14.00
2018-07-11T06:17:42.784Z,14.00
2018-07-11T06:20:10.933Z,13.90
2018-07-11T06:22:39.106Z,14.10
2018-07-11T06:25:07.255Z,13.80
2018-07-11T06:27:35.426Z,14.20
2018-07-11T06:30:03.570Z,14.10
2018-07-11T06:32:31.768Z,14.50
2018-07-11T06:37:27.958Z,14.40
2018-07-11T06:39:56.179Z,14.30
2018-07-11T06:44:52.240Z,14.30
2018-07-11T06:47:20.384Z,14.60
2018-07-11T06:49:48.533Z,14.60
2018-07-11T06:52:16.958Z,14.50
2018-07-11T06:54:45.108Z,14.50
2018-07-11T06:57:13.292Z,14.70
2018-07-11T07:02:09.365Z,14.80
2018-07-11T07:04:37.508Z,14.90
2018-07-11T07:09:33.574Z,14.90
2018-07-11T07:12:01.743Z,14.80
2018-07-11T07:14:29.898Z,15.10
2018-07-11T07:16:58.041Z,15.00
2018-07-11T07:19:26.217Z,14.90
2018-07-11T07:21:54.377Z,15.00
2018-07-11T07:24:22.525Z,15.00
2018-07-11T07:26:50.692Z,15.10
2018-07-11T07:29:18.849Z,15.00
2018-07-11T07:34:14.981Z,15.00
2018-07-11T07:36:43.203Z,16.20
2018-07-11T07:39:12.024Z,16.20
2018-07-11T07:41:40.188Z,16.00
2018-07-11T07:44:09.525Z,15.80
2018-07-11T07:49:05.628Z,16.10
2018-07-11T07:51:33.785Z,15.90
2018-07-11T07:54:01.964Z,15.50
2018-07-11T07:56:30.126Z,15.30
2018-07-11T07:58:58.284Z,15.40
2018-07-11T08:01:26.432Z,15.40
2018-07-11T08:06:22.510Z,15.60
2018-07-11T08:08:50.665Z,15.30
2018-07-11T08:13:46.803Z,15.20
2018-07-11T08:18:42.921Z,15.30
2018-07-11T08:21:11.108Z,15.50
2018-07-11T08:26:25.170Z,15.40
2018-07-11T08:32:17.532Z,15.40
2018-07-11T08:34:58.641Z,15.70
2018-07-11T08:37:45.073Z,15.60
2018-07-11T08:40:22.182Z,15.80
2018-07-11T08:43:58.559Z,15.80
2018-07-11T08:46:38.216Z,16.00
2018-07-11T08:51:52.992Z,15.80
2018-07-11T08:59:41.984Z,15.50
2018-07-11T09:04:28.808Z,15.60
2018-07-11T09:07:25.063Z,15.70
2018-07-11T09:10:36.377Z,15.70
2018-07-11T09:13:15.801Z,15.70
2018-07-11T09:15:55.577Z,15.90
2018-07-11T09:20:41.945Z,15.90
2018-07-11T09:23:20.810Z,16.20
2018-07-11T09:25:48.982Z,16.10
2018-07-11T09:28:17.158Z,16.50
2018-07-11T09:30:45.321Z,16.70
2018-07-11T09:33:13.464Z,16.60
2018-07-11T09:35:41.660Z,16.90
2018-07-11T09:38:09.825Z,17.10
2018-07-11T09:40:38.465Z,16.50
2018-07-11T09:43:06.666Z,16.30
2018-07-11T09:45:34.850Z,16.20
2018-07-11T09:48:02.994Z,15.90
2018-07-11T09:50:31.178Z,15.80
2018-07-11T09:52:59.367Z,15.90
2018-07-11T09:55:27.530Z,16.00
2018-07-11T10:00:28.869Z,16.10
2018-07-11T10:02:57.053Z,16.00
2018-07-11T10:05:25.435Z,15.90
2018-07-11T10:07:53.608Z,16.10
2018-07-11T10:10:21.789Z,16.30
2018-07-11T10:12:49.980Z,16.40
2018-07-11T10:17:46.210Z,16.50
2018-07-11T10:20:14.394Z,16.60
2018-07-11T10:25:10.541Z,16.70
2018-07-11T10:30:06.652Z,16.90
2018-07-11T10:32:34.848Z,16.70
2018-07-11T10:35:03.040Z,16.70
2018-07-11T10:39:59.158Z,17.10
2018-07-11T10:42:27.475Z,16.80
2018-07-11T10:44:55.843Z,17.50
2018-07-11T10:47:24.022Z,18.20
2018-07-11T10:49:52.182Z,18.70
2018-07-11T10:54:48.268Z,18.90
2018-07-11T10:57:16.421Z,18.30
2018-07-11T10:59:44.598Z,18.60
2018-07-11T11:02:17.346Z,18.60
2018-07-11T11:07:13.424Z,19.30
2018-07-11T11:09:41.590Z,19.30
2018-07-11T11:12:09.842Z,19.40
2018-07-11T11:14:38.069Z,20.70
2018-07-11T11:17:06.201Z,21.80
2018-07-11T11:19:34.380Z,21.70
2018-07-11T11:22:02.775Z,21.80
2018-07-11T11:24:30.928Z,22.20
2018-07-11T11:26:59.117Z,21.50
2018-07-11T11:29:27.280Z,21.30
2018-07-11T11:31:55.452Z,21.70
2018-07-11T11:34:23.600Z,21.60
2018-07-11T11:36:51.897Z,21.70
2018-07-11T11:39:20.084Z,22.10
2018-07-11T11:41:48.319Z,21.50
2018-07-11T11:46:44.331Z,20.50
2018-07-11T11:49:12.516Z,19.60
2018-07-11T11:51:40.664Z,20.50
2018-07-11T11:54:08.812Z,22.00
2018-07-11T11:56:36.948Z,21.90
2018-07-11T11:59:05.389Z,22.40
2018-07-11T12:01:33.567Z,22.80
2018-07-11T12:04:01.717Z,23.10
2018-07-11T12:06:29.862Z,23.90
2018-07-11T12:08:58.000Z,23.60
2018-07-11T12:11:26.171Z,22.50
2018-07-11T12:13:54.428Z,21.20
2018-07-11T12:16:22.621Z,21.00
2018-07-11T12:18:50.758Z,20.70
2018-07-11T12:21:18.916Z,20.80
2018-07-11T12:26:16.054Z,21.70
2018-07-11T12:28:44.192Z,22.40
2018-07-11T12:31:12.367Z,22.50
2018-07-11T12:33:40.522Z,22.70
2018-07-11T12:38:36.580Z,22.10
2018-07-11T12:41:04.796Z,22.80
2018-07-11T12:43:33.014Z,22.80
2018-07-11T12:46:01.180Z,22.10
2018-07-11T12:48:34.733Z,22.00
2018-07-11T12:51:02.919Z,21.90
2018-07-11T12:53:31.108Z,22.30
2018-07-11T12:55:59.419Z,22.30
2018-07-11T12:58:27.576Z,21.90
2018-07-11T13:03:23.716Z,22.30
2018-07-11T13:08:20.817Z,22.40
2018-07-11T13:10:49.464Z,22.30
2018-07-11T13:15:45.619Z,21.50
2018-07-11T13:18:13.785Z,21.60
2018-07-11T13:23:09.872Z,20.70
2018-07-11T13:25:38.146Z,20.30
2018-07-11T13:28:06.232Z,20.40
2018-07-11T13:30:34.404Z,20.60
2018-07-11T13:33:02.551Z,20.60
2018-07-11T13:35:30.782Z,20.70
2018-07-11T13:37:58.940Z,21.00
2018-07-11T13:40:27.092Z,21.20
2018-07-11T13:42:55.289Z,21.10
2018-07-11T13:45:23.465Z,20.80
2018-07-11T13:47:57.005Z,20.70
2018-07-11T13:50:25.218Z,21.00
2018-07-11T13:52:53.718Z,21.10
2018-07-11T13:55:21.905Z,21.60
2018-07-11T13:57:50.117Z,21.30
2018-07-11T14:00:18.697Z,21.10
2018-07-11T14:02:47.153Z,21.50
2018-07-11T14:05:15.320Z,21.80
2018-07-11T14:07:43.476Z,21.50
2018-07-11T14:10:11.637Z,21.50
2018-07-11T14:12:39.809Z,21.30
2018-07-11T14:15:08.341Z,21.20
2018-07-11T14:20:05.306Z,20.90
2018-07-11T14:22:33.416Z,21.20
2018-07-11T14:25:02.045Z,21.50
2018-07-11T14:27:30.180Z,21.30
2018-07-11T14:29:59.984Z,21.20
2018-07-11T14:32:28.139Z,21.40
2018-07-11T14:34:56.292Z,21.60
2018-07-11T14:39:52.668Z,21.70
2018-07-11T14:42:20.765Z,21.90
2018-07-11T14:44:48.955Z,21.90
2018-07-11T14:47:22.433Z,21.70
2018-07-11T14:49:50.576Z,21.50
2018-07-11T14:52:25.562Z,21.40
2018-07-11T14:54:53.705Z,20.90
2018-07-11T14:57:21.897Z,20.80
2018-07-11T14:59:50.055Z,20.70
2018-07-11T15:02:18.239Z,20.80
2018-07-11T15:04:46.620Z,20.70
2018-07-11T15:07:14.793Z,20.70
2018-07-11T15:09:42.961Z,20.70
2018-07-11T15:12:11.164Z,20.70
2018-07-11T15:14:39.411Z,20.60
2018-07-11T15:17:07.608Z,20.40
2018-07-11T15:19:35.785Z,20.20
2018-07-11T15:22:03.965Z,20.40
2018-07-11T15:24:32.758Z,20.30
2018-07-11T15:27:00.937Z,20.30
2018-07-11T15:29:29.093Z,20.60
2018-07-11T15:31:57.276Z,20.30
2018-07-11T15:34:25.436Z,20.60
2018-07-11T15:36:53.691Z,20.70
2018-07-11T15:39:22.097Z,20.80
2018-07-11T15:41:50.349Z,21.00
2018-07-11T15:44:18.667Z,20.80
2018-07-11T15:46:46.994Z,21.00
2018-07-11T15:49:15.223Z,20.50
2018-07-11T15:51:43.454Z,20.30
2018-07-11T15:54:12.879Z,20.30
2018-07-11T15:56:41.404Z,20.20
2018-07-11T15:59:10.820Z,20.40
2018-07-11T16:01:48.482Z,20.00
2018-07-11T16:04:49.189Z,20.00
2018-07-11T16:07:17.667Z,20.00
2018-07-11T16:09:53.593Z,20.00
2018-07-11T16:12:22.140Z,20.20
2018-07-11T16:14:50.289Z,20.00
2018-07-11T16:17:18.801Z,19.80
2018-07-11T16:19:46.941Z,19.90
2018-07-11T16:22:15.117Z,20.10
2018-07-11T16:24:43.579Z,19.90
2018-07-11T16:27:11.749Z,19.90
2018-07-11T16:29:39.899Z,19.90
2018-07-11T16:34:36.705Z,19.90
2018-07-11T16:37:05.387Z,20.10
2018-07-11T16:39:33.994Z,20.30
2018-07-11T16:42:03.874Z,20.40
2018-07-11T16:44:32.780Z,20.20
2018-07-11T16:47:02.218Z,20.10
2018-07-11T16:51:59.981Z,20.60
2018-07-11T16:54:28.261Z,20.40
2018-07-11T16:56:57.152Z,20.40
2018-07-11T16:59:29.329Z,20.20
2018-07-11T17:02:00.561Z,20.00
2018-07-11T17:04:31.144Z,19.90
2018-07-11T17:07:00.930Z,19.90
2018-07-11T17:12:00.958Z,19.80
2018-07-11T17:17:01.199Z,19.70
2018-07-11T17:19:37.220Z,19.90
2018-07-11T17:22:06.572Z,20.10
2018-07-11T17:24:42.302Z,20.20
2018-07-11T17:27:10.626Z,20.20
2018-07-11T17:29:40.642Z,20.10
2018-07-11T17:32:10.197Z,19.90
2018-07-11T17:34:40.237Z,19.80
2018-07-11T17:39:56.853Z,20.00
2018-07-11T17:45:17.896Z,20.00
2018-07-11T17:49:59.925Z,19.70
2018-07-11T17:52:28.933Z,19.60
2018-07-11T17:55:10.441Z,19.60
2018-07-11T17:57:52.828Z,19.70
2018-07-11T18:00:43.821Z,19.60
2018-07-11T18:03:51.774Z,19.90
2018-07-11T18:06:25.448Z,20.10
2018-07-11T18:09:04.973Z,20.30
2018-07-11T18:11:48.232Z,20.50
2018-07-11T18:15:24.764Z,20.50
2018-07-11T18:20:05.491Z,20.40
2018-07-11T18:22:52.853Z,20.40
2018-07-11T18:25:34.094Z,20.10
2018-07-11T18:28:14.381Z,20.10
2018-07-11T18:30:54.432Z,19.80
2018-07-11T18:33:34.632Z,19.70
2018-07-11T18:36:22.774Z,19.70
2018-07-11T18:38:59.120Z,19.90
2018-07-11T18:41:42.090Z,19.80
2018-07-11T18:44:28.213Z,19.70
2018-07-11T18:47:33.190Z,19.80
2018-07-11T18:50:11.261Z,20.00
2018-07-11T18:52:52.804Z,20.20
2018-07-11T18:55:32.491Z,20.20
2018-07-11T18:59:18.485Z,20.20
2018-07-11T19:01:59.049Z,20.10
2018-07-11T19:04:36.148Z,20.00
2018-07-11T19:12:24.692Z,19.40
2018-07-11T19:15:16.963Z,19.30
2018-07-11T19:21:30.106Z,19.00
2018-07-11T19:24:05.549Z,19.10
2018-07-11T19:26:45.304Z,19.10
2018-07-11T19:32:55.981Z,18.80
2018-07-11T19:35:35.516Z,18.90
2018-07-11T19:38:10.517Z,18.60
2018-07-11T19:40:49.369Z,18.70
2018-07-11T19:45:46.864Z,18.70
2018-07-11T19:48:27.654Z,18.80
2018-07-11T19:51:07.810Z,18.80
2018-07-11T19:55:50.572Z,18.80
2018-07-11T19:58:18.729Z,18.80
2018-07-11T20:00:46.919Z,18.80
2018-07-11T20:03:15.101Z,18.90
2018-07-11T20:05:53.341Z,18.90
2018-07-11T20:08:11.406Z,18.90
2018-07-11T20:10:39.593Z,18.90
2018-07-11T20:13:07.777Z,18.90
2018-07-11T20:15:35.930Z,18.90
2018-07-11T20:22:59.964Z,18.90
2018-07-11T20:25:28.117Z,18.90
2018-07-11T20:27:56.305Z,18.90
2018-07-11T20:30:24.880Z,18.90
2018-07-11T20:32:53.033Z,18.90
2018-07-11T20:40:17.228Z,19.00
2018-07-11T20:42:45.444Z,19.00
2018-07-11T20:45:13.613Z,18.90
2018-07-11T20:47:41.801Z,19.00
2018-07-11T20:50:09.984Z,19.00
2018-07-11T20:52:38.169Z,18.90
2018-07-11T20:55:06.341Z,18.90
2018-07-11T20:57:34.518Z,18.90
2018-07-11T21:00:14.128Z,18.90
2018-07-11T21:03:06.586Z,18.80
2018-07-11T21:05:49.664Z,18.80
2018-07-11T21:08:55.245Z,18.70
2018-07-11T21:11:40.739Z,18.70
2018-07-11T21:14:19.193Z,18.70
2018-07-11T21:16:57.761Z,18.70
2018-07-11T21:19:26.049Z,18.70
2018-07-11T21:21:55.002Z,18.60
2018-07-11T21:24:23.366Z,18.40
2018-07-11T21:26:51.626Z,18.20
2018-07-11T21:29:19.900Z,18.00
2018-07-11T21:31:48.172Z,18.00
2018-07-11T21:34:16.463Z,18.00
2018-07-11T21:36:44.708Z,17.90
2018-07-11T21:39:13.053Z,17.70
2018-07-11T21:44:09.332Z,17.60
2018-07-11T21:46:37.660Z,17.50
2018-07-11T21:49:05.918Z,17.50
2018-07-11T21:51:34.284Z,17.40
2018-07-11T21:54:02.562Z,17.40
2018-07-11T21:56:30.823Z,17.50
2018-07-11T21:58:59.113Z,17.40
2018-07-11T22:01:27.425Z,17.60
2018-07-11T22:03:55.751Z,17.70
2018-07-11T22:06:24.035Z,17.80
2018-07-11T22:08:52.317Z,17.90
2018-07-11T22:11:20.624Z,17.90
2018-07-11T22:13:48.971Z,17.90
2018-07-11T22:16:17.301Z,17.80
2018-07-11T22:21:14.383Z,17.40
2018-07-11T22:23:41.594Z,17.50
2018-07-11T22:26:08.833Z,17.30
2018-07-11T22:28:36.039Z,17.20
2018-07-11T22:31:03.273Z,17.30
2018-07-11T22:35:58.032Z,17.20
2018-07-11T22:38:25.184Z,17.20
2018-07-11T22:40:52.408Z,17.10
2018-07-11T22:43:19.581Z,17.20
2018-07-11T22:45:46.748Z,17.10
2018-07-11T22:48:13.916Z,17.00
2018-07-11T22:50:41.092Z,17.00
2018-07-11T22:55:35.688Z,17.00
2018-07-11T23:00:30.303Z,16.90
2018-07-11T23:05:24.910Z,16.80
2018-07-11T23:10:19.511Z,16.50
2018-07-11T23:12:47.541Z,16.40
2018-07-11T23:15:14.741Z,16.30
2018-07-11T23:17:41.934Z,16.30
2018-07-11T23:20:09.137Z,16.00
2018-07-11T23:22:36.328Z,15.80
2018-07-11T23:25:03.532Z,16.00
2018-07-11T23:27:30.739Z,16.20
2018-07-11T23:29:57.961Z,16.10
2018-07-11T23:32:25.119Z,16.10
2018-07-11T23:34:52.304Z,16.30
2018-07-11T23:37:19.470Z,16.40
2018-07-11T23:39:46.669Z,16.60
2018-07-11T23:42:13.835Z,16.40
2018-07-11T23:44:41.016Z,16.60
2018-07-11T23:47:08.193Z,16.60
2018-07-11T23:52:02.797Z,16.50
2018-07-11T23:54:29.960Z,16.50
2018-07-11T23:59:24.563Z,16.30
